Portada
METAR-TAF:

METAR-TAF

Aeroports :

Ulan Bator, Mongòlia

latitud: 47-55N, longitud: 106-52E, altitud: 1306 m

Observació

L'informe es va fer fa 11 minuts, a les 14:30 UTC
Vent calma
Temperatura -20°C
Humitat 77%
Pressió 1025 hPa
Visibilitat 10 km o més
sense núvols per sota de 1500 mi sense presència de cumulonimbus.

METAR: ZMUB 171430Z 00000MPS CAVOK M20/M23 Q1025 NOSIG RMK QFE660.4 75

Hora: 22:41 (14:41 UTC)

Pronòstic

L'informe es va fer fa 4 hores i 11 minuts, a les 10:30 UTC
Pronòstic vàlid del 17 a les 12 UTC al 18 a les 18 UTC
Vent 4 kt amb direcció variable
Visibilitat: 6000 m
Núvols disperses a una alçada de 10000 ft

TAF: ZMUB 171030Z 1712/1818 VRB02MPS 6000 SCT100 TNM23/1723Z TXM07/1807Z

Observacions i pronòstics meteorològics de més de 4000 aeroports (METAR i TAF).

Les estacions disponibles són els punts grocs i vermells al mapa.

Posi el ratolí al punt desitjat per veure el nom de l'estació.

Feu clic per veure les observacions i els pronòstics meteorològics.

Per canviar el mapa: feu clic els botons verds amb una creu de color negre per apropar; al botó verd amb un guió per allunyar la imatge; o en les fletxes verdes per a mapes adjacents.


METAR-TAF: